sensor_id;sensor_type;location;lat;lon;timestamp;pressure;altitude;pressure_sealevel;temperature;humidity
28310;BME280;15571;50.974;13.936;2023-01-15T01:41:42;98645.59;;;9.11;100.00
28310;BME280;15571;50.974;13.936;2023-01-15T01:44:59;98653.47;;;9.10;100.00
28310;BME280;15571;50.974;13.936;2023-01-15T01:48:02;98647.31;;;9.12;100.00
28310;BME280;15571;50.974;13.936;2023-01-15T01:51:06;98635.16;;;9.11;100.00
28310;BME280;15571;50.974;13.936;2023-01-15T01:54:11;98632.53;;;9.11;100.00
28310;BME280;15571;50.974;13.936;2023-01-15T01:57:15;98621.22;;;9.12;100.00
28310;BME280;15571;50.974;13.936;2023-01-15T02:00:22;98628.91;;;9.17;100.00
28310;BME280;15571;50.974;13.936;2023-01-15T02:03:26;98626.28;;;9.18;100.00
28310;BME280;15571;50.974;13.936;2023-01-15T02:06:32;98629.72;;;9.21;100.00
28310;BME280;15571;50.974;13.936;2023-01-15T02:09:36;98620.97;;;9.22;100.00
28310;BME280;15571;50.974;13.936;2023-01-15T02:12:39;98613.13;;;9.23;100.00
28310;BME280;15571;50.974;13.936;2023-01-15T02:15:44;98607.00;;;9.24;100.00
28310;BME280;15571;50.974;13.936;2023-01-15T02:18:49;98604.34;;;9.26;100.00
28310;BME280;15571;50.974;13.936;2023-01-15T02:21:55;98589.50;;;9.28;100.00
28310;BME280;15571;50.974;13.936;2023-01-15T02:25:04;98592.94;;;9.30;100.00
28310;BME280;15571;50.974;13.936;2023-01-15T02:28:12;98586.78;;;9.31;100.00
28310;BME280;15571;50.974;13.936;2023-01-15T02:31:18;98588.50;;;9.32;100.00
28310;BME280;15571;50.974;13.936;2023-01-15T02:34:25;98578.03;;;9.33;100.00
28310;BME280;15571;50.974;13.936;2023-01-15T02:37:30;98583.22;;;9.35;100.00
28310;BME280;15571;50.974;13.936;2023-01-15T02:40:34;98590.09;;;9.38;100.00
28310;BME280;15571;50.974;13.936;2023-01-15T02:43:39;98587.47;;;9.39;100.00
28310;BME280;15571;50.974;13.936;2023-01-15T02:46:42;98583.97;;;9.40;100.00
28310;BME280;15571;50.974;13.936;2023-01-15T02:49:45;98587.41;;;9.41;100.00
28310;BME280;15571;50.974;13.936;2023-01-15T02:52:52;98584.75;;;9.42;100.00
28310;BME280;15571;50.974;13.936;2023-01-15T02:56:02;98576.91;;;9.42;100.00
28310;BME280;15571;50.974;13.936;2023-01-15T02:59:14;98560.41;;;9.42;100.00
28310;BME280;15571;50.974;13.936;2023-01-15T03:02:20;98548.16;;;9.44;100.00
28310;BME280;15571;50.974;13.936;2023-01-15T03:05:23;98534.22;;;9.45;100.00
28310;BME280;15571;50.974;13.936;2023-01-15T03:08:29;98536.69;;;9.49;100.00
28310;BME280;15571;50.974;13.936;2023-01-15T03:11:31;98532.38;;;9.48;100.00
28310;BME280;15571;50.974;13.936;2023-01-15T03:14:41;98533.16;;;9.50;100.00
28310;BME280;15571;50.974;13.936;2023-01-15T03:17:52;98527.94;;;9.50;100.00
28310;BME280;15571;50.974;13.936;2023-01-15T03:20:56;98532.31;;;9.50;100.00
28310;BME280;15571;50.974;13.936;2023-01-15T03:24:00;98533.06;;;9.54;100.00
28310;BME280;15571;50.974;13.936;2023-01-15T03:27:07;98529.56;;;9.55;100.00
28310;BME280;15571;50.974;13.936;2023-01-15T03:30:14;98527.78;;;9.55;100.00
28310;BME280;15571;50.974;13.936;2023-01-15T03:33:17;98525.19;;;9.55;100.00
28310;BME280;15571;50.974;13.936;2023-01-15T03:36:19;98517.31;;;9.57;100.00
28310;BME280;15571;50.974;13.936;2023-01-15T03:39:23;98520.84;;;9.56;100.00
28310;BME280;15571;50.974;13.936;2023-01-15T03:42:41;98514.66;;;9.58;100.00
28310;BME280;15571;50.974;13.936;2023-01-15T03:45:48;98502.47;;;9.59;100.00
28310;BME280;15571;50.974;13.936;2023-01-15T03:48:54;98508.47;;;9.61;100.00
28310;BME280;15571;50.974;13.936;2023-01-15T03:52:00;98493.63;;;9.63;100.00
28310;BME280;15571;50.974;13.936;2023-01-15T03:55:05;98491.00;;;9.63;100.00
28310;BME280;15571;50.974;13.936;2023-01-15T03:58:12;98484.88;;;9.64;100.00
28310;BME280;15571;50.974;13.936;2023-01-15T04:01:19;98490.16;;;9.62;100.00
28310;BME280;15571;50.974;13.936;2023-01-15T04:04:23;98487.50;;;9.64;100.00
28310;BME280;15571;50.974;13.936;2023-01-15T04:07:27;98483.09;;;9.66;100.00
28310;BME280;15571;50.974;13.936;2023-01-15T04:10:49;98484.84;;;9.65;100.00
28310;BME280;15571;50.974;13.936;2023-01-15T04:13:51;98487.50;;;9.64;100.00
28310;BME280;15571;50.974;13.936;2023-01-15T04:17:21;98483.94;;;9.66;100.00
28310;BME280;15571;50.974;13.936;2023-01-15T04:20:23;98483.91;;;9.68;100.00
28310;BME280;15571;50.974;13.936;2023-01-15T04:23:26;98476.97;;;9.67;100.00
28310;BME280;15571;50.974;13.936;2023-01-15T04:26:28;98482.09;;;9.70;100.00
28310;BME280;15571;50.974;13.936;2023-01-15T04:29:30;98481.28;;;9.68;100.00
28310;BME280;15571;50.974;13.936;2023-01-15T04:32:33;98478.63;;;9.70;100.00
28310;BME280;15571;50.974;13.936;2023-01-15T04:35:36;98471.59;;;9.72;100.00
28310;BME280;15571;50.974;13.936;2023-01-15T04:38:38;98473.34;;;9.71;100.00
28310;BME280;15571;50.974;13.936;2023-01-15T04:41:40;98464.59;;;9.72;100.00
28310;BME280;15571;50.974;13.936;2023-01-15T04:44:59;98462.06;;;9.71;100.00
28310;BME280;15571;50.974;13.936;2023-01-15T04:48:04;98461.00;;;9.76;100.00
28310;BME280;15571;50.974;13.936;2023-01-15T04:51:08;98450.56;;;9.76;100.00
28310;BME280;15571;50.974;13.936;2023-01-15T04:54:12;98459.31;;;9.75;100.00
28310;BME280;15571;50.974;13.936;2023-01-15T04:57:14;98449.69;;;9.76;100.00
28310;BME280;15571;50.974;13.936;2023-01-15T05:00:16;98446.28;;;9.74;100.00
28310;BME280;15571;50.974;13.936;2023-01-15T05:03:19;98449.75;;;9.74;100.00
28310;BME280;15571;50.974;13.936;2023-01-15T05:06:21;98441.91;;;9.74;100.00
28310;BME280;15571;50.974;13.936;2023-01-15T05:09:25;98434.97;;;9.73;100.00
28310;BME280;15571;50.974;13.936;2023-01-15T05:12:27;98428.03;;;9.72;100.00
28310;BME280;15571;50.974;13.936;2023-01-15T05:15:28;98428.03;;;9.72;100.00
28310;BME280;15571;50.974;13.936;2023-01-15T05:18:32;98424.50;;;9.73;100.00
28310;BME280;15571;50.974;13.936;2023-01-15T05:21:34;98424.50;;;9.73;100.00
28310;BME280;15571;50.974;13.936;2023-01-15T05:24:37;98417.56;;;9.72;100.00
28310;BME280;15571;50.974;13.936;2023-01-15T05:27:38;98424.47;;;9.75;100.00
28310;BME280;15571;50.974;13.936;2023-01-15T05:30:42;98434.00;;;9.76;100.00
28310;BME280;15571;50.974;13.936;2023-01-15T05:33:45;98421.81;;;9.76;100.00
28310;BME280;15571;50.974;13.936;2023-01-15T05:36:47;98413.97;;;9.76;100.00
28310;BME280;15571;50.974;13.936;2023-01-15T05:39:49;98420.91;;;9.77;100.00
28310;BME280;15571;50.974;13.936;2023-01-15T05:42:53;98421.75;;;9.78;100.00
28310;BME280;15571;50.974;13.936;2023-01-15T05:45:55;98415.69;;;9.77;100.00
28310;BME280;15571;50.974;13.936;2023-01-15T05:49:03;98413.91;;;9.78;100.00
28310;BME280;15571;50.974;13.936;2023-01-15T05:52:09;98403.53;;;9.76;100.00
28310;BME280;15571;50.974;13.936;2023-01-15T05:55:11;98409.56;;;9.78;100.00
28310;BME280;15571;50.974;13.936;2023-01-15T05:58:13;98399.13;;;9.77;100.00
28310;BME280;15571;50.974;13.936;2023-01-15T06:01:15;98405.25;;;9.77;100.00
28310;BME280;15571;50.974;13.936;2023-01-15T06:04:19;98407.78;;;9.79;100.00
28310;BME280;15571;50.974;13.936;2023-01-15T06:07:21;98413.03;;;9.79;100.00
28310;BME280;15571;50.974;13.936;2023-01-15T06:10:23;98401.59;;;9.81;100.00
28310;BME280;15571;50.974;13.936;2023-01-15T06:13:25;98405.09;;;9.82;100.00
28310;BME280;15571;50.974;13.936;2023-01-15T06:16:27;98403.31;;;9.82;100.00
28310;BME280;15571;50.974;13.936;2023-01-15T06:19:30;98406.75;;;9.85;100.00
28310;BME280;15571;50.974;13.936;2023-01-15T06:22:32;98402.38;;;9.85;100.00
28310;BME280;15571;50.974;13.936;2023-01-15T06:25:35;98395.47;;;9.84;100.00
28310;BME280;15571;50.974;13.936;2023-01-15T06:28:37;98390.25;;;9.82;100.00
28310;BME280;15571;50.974;13.936;2023-01-15T06:31:39;98398.97;;;9.83;100.00
28310;BME280;15571;50.974;13.936;2023-01-15T06:34:42;98402.38;;;9.85;100.00
28310;BME280;15571;50.974;13.936;2023-01-15T06:37:44;98400.69;;;9.84;100.00
28310;BME280;15571;50.974;13.936;2023-01-15T06:40:46;98395.53;;;9.81;100.00
28310;BME280;15571;50.974;13.936;2023-01-15T06:43:48;98398.91;;;9.85;100.00
28310;BME280;15571;50.974;13.936;2023-01-15T06:47:11;98390.22;;;9.84;100.00
28310;BME280;15571;50.974;13.936;2023-01-15T06:50:25;98402.41;;;9.84;100.00
28310;BME280;15571;50.974;13.936;2023-01-15T06:53:27;98402.41;;;9.84;100.00
28310;BME280;15571;50.974;13.936;2023-01-15T06:56:31;98403.31;;;9.82;100.00
28310;BME280;15571;50.974;13.936;2023-01-15T06:59:33;98405.03;;;9.84;100.00
28310;BME280;15571;50.974;13.936;2023-01-15T07:02:35;98422.44;;;9.85;100.00
28310;BME280;15571;50.974;13.936;2023-01-15T07:05:38;98448.47;;;9.88;100.00
28310;BME280;15571;50.974;13.936;2023-01-15T07:08:40;98491.19;;;9.87;100.00
28310;BME280;15571;50.974;13.936;2023-01-15T07:11:42;98497.50;;;9.79;100.00
28310;BME280;15571;50.974;13.936;2023-01-15T07:14:52;98502.75;;;9.79;100.00
28310;BME280;15571;50.974;13.936;2023-01-15T07:17:54;98498.41;;;9.78;100.00
28310;BME280;15571;50.974;13.936;2023-01-15T07:21:08;98518.84;;;9.64;100.00
28310;BME280;15571;50.974;13.936;2023-01-15T07:24:10;98551.75;;;9.40;100.00
28310;BME280;15571;50.974;13.936;2023-01-15T07:27:12;98546.50;;;9.08;100.00
28310;BME280;15571;50.974;13.936;2023-01-15T07:30:14;98561.06;;;8.82;100.00
28310;BME280;15571;50.974;13.936;2023-01-15T07:33:16;98595.47;;;8.62;100.00
28310;BME280;15571;50.974;13.936;2023-01-15T07:36:19;98598.53;;;8.42;100.00
28310;BME280;15571;50.974;13.936;2023-01-15T07:39:21;98612.88;;;8.22;100.00
28310;BME280;15571;50.974;13.936;2023-01-15T07:42:23;98614.16;;;8.03;100.00
28310;BME280;15571;50.974;13.936;2023-01-15T07:45:45;98627.41;;;7.90;100.00
28310;BME280;15571;50.974;13.936;2023-01-15T07:49:07;98643.59;;;7.62;100.00
28310;BME280;15571;50.974;13.936;2023-01-15T07:52:28;98647.09;;;7.61;100.00
28310;BME280;15571;50.974;13.936;2023-01-15T07:55:30;98659.13;;;7.66;100.00
28310;BME280;15571;50.974;13.936;2023-01-15T07:58:38;98661.00;;;7.60;100.00
28310;BME280;15571;50.974;13.936;2023-01-15T08:01:40;98673.09;;;7.63;100.00
28310;BME280;15571;50.974;13.936;2023-01-15T08:04:42;98679.97;;;7.66;100.00
28310;BME280;15571;50.974;13.936;2023-01-15T08:07:45;98676.72;;;7.54;100.00
28310;BME280;15571;50.974;13.936;2023-01-15T08:10:48;98675.03;;;7.52;100.00
28310;BME280;15571;50.974;13.936;2023-01-15T08:14:09;98702.91;;;7.46;100.00
28310;BME280;15571;50.974;13.936;2023-01-15T08:17:28;98696.94;;;7.40;100.00
28310;BME280;15571;50.974;13.936;2023-01-15T08:20:30;98711.72;;;7.39;100.00
28310;BME280;15571;50.974;13.936;2023-01-15T08:23:33;98715.19;;;7.37;100.00
28310;BME280;15571;50.974;13.936;2023-01-15T08:26:35;98717.75;;;7.40;100.00
28310;BME280;15571;50.974;13.936;2023-01-15T08:29:37;98717.69;;;7.44;100.00
28310;BME280;15571;50.974;13.936;2023-01-15T08:32:40;98717.63;;;7.47;100.00
28310;BME280;15571;50.974;13.936;2023-01-15T08:35:42;98727.19;;;7.47;100.00
28310;BME280;15571;50.974;13.936;2023-01-15T08:38:47;98729.09;;;7.36;100.00
28310;BME280;15571;50.974;13.936;2023-01-15T08:41:49;98724.84;;;7.31;100.00
28310;BME280;15571;50.974;13.936;2023-01-15T08:44:51;98726.56;;;7.31;100.00
28310;BME280;15571;50.974;13.936;2023-01-15T08:47:53;98702.28;;;7.30;100.00
28310;BME280;15571;50.974;13.936;2023-01-15T08:50:56;98701.38;;;7.35;100.00
28310;BME280;15571;50.974;13.936;2023-01-15T08:53:59;98674.34;;;7.42;100.00
28310;BME280;15571;50.974;13.936;2023-01-15T08:57:01;98701.13;;;7.47;100.00
28310;BME280;15571;50.974;13.936;2023-01-15T09:00:04;98708.22;;;7.39;100.00
28310;BME280;15571;50.974;13.936;2023-01-15T09:03:08;98722.94;;;7.41;100.00
28310;BME280;15571;50.974;13.936;2023-01-15T09:06:10;98721.13;;;7.46;100.00
28310;BME280;15571;50.974;13.936;2023-01-15T09:09:17;98722.81;;;7.49;100.00
28310;BME280;15571;50.974;13.936;2023-01-15T09:12:19;98721.06;;;7.50;100.00
28310;BME280;15571;50.974;13.936;2023-01-15T09:15:26;98720.38;;;7.40;100.00
28310;BME280;15571;50.974;13.936;2023-01-15T09:18:28;98730.78;;;7.40;100.00
28310;BME280;15571;50.974;13.936;2023-01-15T09:21:30;98751.56;;;7.43;100.00
28310;BME280;15571;50.974;13.936;2023-01-15T09:24:35;98734.16;;;7.45;100.00
28310;BME280;15571;50.974;13.936;2023-01-15T09:27:37;98716.75;;;7.47;100.00
28310;BME280;15571;50.974;13.936;2023-01-15T09:30:42;98721.97;;;7.48;100.00
28310;BME280;15571;50.974;13.936;2023-01-15T09:33:43;98728.84;;;7.51;100.00
28310;BME280;15571;50.974;13.936;2023-01-15T09:36:45;98742.72;;;7.53;100.00
28310;BME280;15571;50.974;13.936;2023-01-15T09:39:49;98730.72;;;7.43;100.00
28310;BME280;15571;50.974;13.936;2023-01-15T09:42:54;98733.41;;;7.38;100.00
28310;BME280;15571;50.974;13.936;2023-01-15T09:45:59;98729.22;;;7.29;100.00
28310;BME280;15571;50.974;13.936;2023-01-15T09:49:05;98732.66;;;7.31;100.00
28310;BME280;15571;50.974;13.936;2023-01-15T09:52:10;98729.16;;;7.32;100.00
28310;BME280;15571;50.974;13.936;2023-01-15T09:55:15;98724.00;;;7.29;100.00
28310;BME280;15571;50.974;13.936;2023-01-15T09:58:19;98736.97;;;7.32;100.00
28310;BME280;15571;50.974;13.936;2023-01-15T10:01:23;98749.88;;;7.39;100.00
28310;BME280;15571;50.974;13.936;2023-01-15T10:04:30;98748.06;;;7.44;100.00
28310;BME280;15571;50.974;13.936;2023-01-15T10:07:35;98757.50;;;7.50;100.00
28310;BME280;15571;50.974;13.936;2023-01-15T10:10:43;98755.72;;;7.53;100.00
28310;BME280;15571;50.974;13.936;2023-01-15T10:13:46;98764.34;;;7.57;100.00
28310;BME280;15571;50.974;13.936;2023-01-15T10:16:49;98746.97;;;7.59;100.00
28310;BME280;15571;50.974;13.936;2023-01-15T10:19:51;98740.84;;;7.60;100.00
28310;BME280;15571;50.974;13.936;2023-01-15T10:22:57;98760.75;;;7.64;100.00
28310;BME280;15571;50.974;13.936;2023-01-15T10:26:07;98752.91;;;7.66;100.00
28310;BME280;15571;50.974;13.936;2023-01-15T10:29:16;98751.13;;;7.68;100.00
28310;BME280;15571;50.974;13.936;2023-01-15T10:32:26;98760.63;;;7.70;100.00
28310;BME280;15571;50.974;13.936;2023-01-15T10:35:36;98751.94;;;7.71;100.00
28310;BME280;15571;50.974;13.936;2023-01-15T10:38:44;98744.13;;;7.71;100.00
28310;BME280;15571;50.974;13.936;2023-01-15T10:41:53;98753.66;;;7.72;100.00
28310;BME280;15571;50.974;13.936;2023-01-15T10:45:03;98755.38;;;7.73;100.00
28310;BME280;15571;50.974;13.936;2023-01-15T10:48:11;98767.56;;;7.73;100.00
28310;BME280;15571;50.974;13.936;2023-01-15T10:51:15;98786.59;;;7.75;100.00
28310;BME280;15571;50.974;13.936;2023-01-15T10:54:20;98791.81;;;7.76;100.00
28310;BME280;15571;50.974;13.936;2023-01-15T10:57:35;98791.81;;;7.76;100.00
28310;BME280;15571;50.974;13.936;2023-01-15T11:00:43;98795.28;;;7.75;100.00
28310;BME280;15571;50.974;13.936;2023-01-15T11:03:46;98795.28;;;7.75;100.00
28310;BME280;15571;50.974;13.936;2023-01-15T11:06:48;98803.06;;;7.77;100.00
28310;BME280;15571;50.974;13.936;2023-01-15T11:09:53;98807.41;;;7.78;100.00
28310;BME280;15571;50.974;13.936;2023-01-15T11:12:57;98804.84;;;7.75;100.00
28310;BME280;15571;50.974;13.936;2023-01-15T11:16:19;98790.09;;;7.75;100.00
28310;BME280;15571;50.974;13.936;2023-01-15T11:19:39;98796.22;;;7.73;100.00
28310;BME280;15571;50.974;13.936;2023-01-15T11:22:44;98804.84;;;7.75;100.00
28310;BME280;15571;50.974;13.936;2023-01-15T11:25:47;98797.03;;;7.75;100.00
28310;BME280;15571;50.974;13.936;2023-01-15T11:28:51;98810.03;;;7.76;100.00
28310;BME280;15571;50.974;13.936;2023-01-15T11:31:56;98797.84;;;7.77;100.00
28310;BME280;15571;50.974;13.936;2023-01-15T11:34:58;98806.56;;;7.77;100.00
28310;BME280;15571;50.974;13.936;2023-01-15T11:38:04;98796.13;;;7.76;100.00
28310;BME280;15571;50.974;13.936;2023-01-15T11:41:15;98800.53;;;7.74;100.00
28310;BME280;15571;50.974;13.936;2023-01-15T11:44:20;98791.00;;;7.73;100.00
28310;BME280;15571;50.974;13.936;2023-01-15T11:47:49;98801.44;;;7.71;100.00
28310;BME280;15571;50.974;13.936;2023-01-15T11:51:10;98806.66;;;7.70;100.00
28310;BME280;15571;50.974;13.936;2023-01-15T11:54:13;98809.31;;;7.68;100.00
28310;BME280;15571;50.974;13.936;2023-01-15T11:57:22;98808.44;;;7.68;100.00
28310;BME280;15571;50.974;13.936;2023-01-15T12:00:29;98804.09;;;7.68;100.00
28310;BME280;15571;50.974;13.936;2023-01-15T12:03:33;98792.81;;;7.68;100.00
28310;BME280;15571;50.974;13.936;2023-01-15T12:06:38;98787.59;;;7.68;100.00
28310;BME280;15571;50.974;13.936;2023-01-15T12:09:46;98806.66;;;7.70;100.00
28310;BME280;15571;50.974;13.936;2023-01-15T12:12:59;98811.88;;;7.70;100.00
28310;BME280;15571;50.974;13.936;2023-01-15T12:16:08;98805.84;;;7.68;100.00
28310;BME280;15571;50.974;13.936;2023-01-15T12:19:14;98793.66;;;7.70;100.00
28310;BME280;15571;50.974;13.936;2023-01-15T12:22:22;98797.97;;;7.71;100.00
28310;BME280;15571;50.974;13.936;2023-01-15T12:25:31;98784.06;;;7.72;100.00
28310;BME280;15571;50.974;13.936;2023-01-15T12:28:35;98764.06;;;7.72;100.00
28310;BME280;15571;50.974;13.936;2023-01-15T12:31:41;98780.59;;;7.73;100.00
28310;BME280;15571;50.974;13.936;2023-01-15T12:34:45;98789.22;;;7.75;100.00
28310;BME280;15571;50.974;13.936;2023-01-15T12:37:56;98790.94;;;7.76;100.00
28310;BME280;15571;50.974;13.936;2023-01-15T12:41:06;98780.47;;;7.79;100.00
28310;BME280;15571;50.974;13.936;2023-01-15T12:44:09;98792.59;;;7.80;100.00
28310;BME280;15571;50.974;13.936;2023-01-15T12:47:30;98783.03;;;7.82;100.00
28310;BME280;15571;50.974;13.936;2023-01-15T12:50:37;98775.22;;;7.82;100.00
28310;BME280;15571;50.974;13.936;2023-01-15T12:53:44;98783.84;;;7.84;100.00
28310;BME280;15571;50.974;13.936;2023-01-15T12:56:52;98781.22;;;7.84;100.00
28310;BME280;15571;50.974;13.936;2023-01-15T12:59:57;98785.56;;;7.85;100.00
28310;BME280;15571;50.974;13.936;2023-01-15T13:03:04;98786.44;;;7.84;100.00
28310;BME280;15571;50.974;13.936;2023-01-15T13:06:11;98802.97;;;7.83;100.00
28310;BME280;15571;50.974;13.936;2023-01-15T13:09:18;98795.97;;;7.85;100.00
28310;BME280;15571;50.974;13.936;2023-01-15T13:12:24;98802.91;;;7.86;100.00
28310;BME280;15571;50.974;13.936;2023-01-15T13:15:30;98802.94;;;7.85;100.00
28310;BME280;15571;50.974;13.936;2023-01-15T13:18:39;98802.97;;;7.83;100.00
28310;BME280;15571;50.974;13.936;2023-01-15T13:21:44;98775.13;;;7.85;100.00
28310;BME280;15571;50.974;13.936;2023-01-15T17:51:39;99095.97;;;6.62;100.00
28310;BME280;15571;50.974;13.936;2023-01-15T17:54:41;99096.00;;;6.61;100.00
28310;BME280;15571;50.974;13.936;2023-01-15T17:58:00;99089.03;;;6.58;100.00
28310;BME280;15571;50.974;13.936;2023-01-15T18:01:20;99098.63;;;6.56;100.00
28310;BME280;15571;50.974;13.936;2023-01-15T18:04:40;99104.72;;;6.52;100.00
28310;BME280;15571;50.974;13.936;2023-01-15T18:08:04;99102.13;;;6.49;100.00
28310;BME280;15571;50.974;13.936;2023-01-15T18:11:08;99099.56;;;6.46;100.00
28310;BME280;15571;50.974;13.936;2023-01-15T18:14:10;99096.97;;;6.39;100.00
28310;BME280;15571;50.974;13.936;2023-01-15T18:17:12;99101.34;;;6.34;100.00
28310;BME280;15571;50.974;13.936;2023-01-15T18:20:13;99103.94;;;6.36;100.00
28310;BME280;15571;50.974;13.936;2023-01-15T18:23:18;99103.06;;;6.37;100.00
28310;BME280;15571;50.974;13.936;2023-01-15T18:26:20;99090.97;;;6.34;100.00
28310;BME280;15571;50.974;13.936;2023-01-15T18:29:22;99097.91;;;6.29;100.00
28310;BME280;15571;50.974;13.936;2023-01-15T18:32:26;99097.94;;;6.26;100.00
28310;BME280;15571;50.974;13.936;2023-01-15T18:35:31;99086.69;;;6.24;100.00
28310;BME280;15571;50.974;13.936;2023-01-15T18:38:35;99101.44;;;6.19;100.00
28310;BME280;15571;50.974;13.936;2023-01-15T18:41:37;99086.72;;;6.16;100.00
28310;BME280;15571;50.974;13.936;2023-01-15T18:44:56;99089.34;;;6.15;100.00
28310;BME280;15571;50.974;13.936;2023-01-15T18:48:15;99100.63;;;6.11;100.00
28310;BME280;15571;50.974;13.936;2023-01-15T18:51:17;99097.16;;;6.12;100.00
28310;BME280;15571;50.974;13.936;2023-01-15T18:54:21;99102.34;;;6.08;100.00
28310;BME280;15571;50.974;13.936;2023-01-15T18:57:23;99111.91;;;6.03;100.00
28310;BME280;15571;50.974;13.936;2023-01-15T19:00:25;99098.03;;;5.98;100.00
28310;BME280;15571;50.974;13.936;2023-01-15T19:03:26;99094.59;;;5.99;100.00
28310;BME280;15571;50.974;13.936;2023-01-15T19:06:28;99099.78;;;6.05;100.00
28310;BME280;15571;50.974;13.936;2023-01-15T19:09:32;99092.00;;;6.05;100.00
28310;BME280;15571;50.974;13.936;2023-01-15T19:12:35;99082.44;;;6.09;100.00
28310;BME280;15571;50.974;13.936;2023-01-15T19:15:40;99073.75;;;6.12;100.00
28310;BME280;15571;50.974;13.936;2023-01-15T19:18:59;99065.09;;;6.10;100.00
28310;BME280;15571;50.974;13.936;2023-01-15T19:22:01;99073.78;;;6.08;100.00
28310;BME280;15571;50.974;13.936;2023-01-15T19:25:21;99068.63;;;6.05;100.00
28310;BME280;15571;50.974;13.936;2023-01-15T19:28:25;99058.22;;;6.05;100.00
28310;BME280;15571;50.974;13.936;2023-01-15T19:31:29;99053.91;;;6.04;100.00
28310;BME280;15571;50.974;13.936;2023-01-15T19:34:38;99063.41;;;6.05;100.00
28310;BME280;15571;50.974;13.936;2023-01-15T19:37:40;99061.69;;;6.03;100.00
28310;BME280;15571;50.974;13.936;2023-01-15T19:40:44;99054.75;;;6.03;100.00
28310;BME280;15571;50.974;13.936;2023-01-15T19:43:45;99059.97;;;6.03;100.00
28310;BME280;15571;50.974;13.936;2023-01-15T19:47:06;99058.25;;;5.96;100.00
28310;BME280;15571;50.974;13.936;2023-01-15T19:50:30;99056.56;;;5.83;100.00
28310;BME280;15571;50.974;13.936;2023-01-15T19:53:33;99057.44;;;5.82;100.00
28310;BME280;15571;50.974;13.936;2023-01-15T19:56:37;99050.50;;;5.81;100.00
28310;BME280;15571;50.974;13.936;2023-01-15T19:59:40;99060.03;;;5.85;100.00
28310;BME280;15571;50.974;13.936;2023-01-15T20:02:47;99053.09;;;5.84;100.00
28310;BME280;15571;50.974;13.936;2023-01-15T20:05:49;99047.06;;;5.79;100.00
28310;BME280;15571;50.974;13.936;2023-01-15T20:08:51;99047.06;;;5.80;100.00
28310;BME280;15571;50.974;13.936;2023-01-15T20:11:55;99049.66;;;5.80;100.00
28310;BME280;15571;50.974;13.936;2023-01-15T20:15:14;99049.69;;;5.75;100.00
28310;BME280;15571;50.974;13.936;2023-01-15T20:18:16;99047.09;;;5.75;100.00
28310;BME280;15571;50.974;13.936;2023-01-15T20:21:22;99053.16;;;5.78;100.00
28310;BME280;15571;50.974;13.936;2023-01-15T20:24:23;99048.81;;;5.78;100.00
28310;BME280;15571;50.974;13.936;2023-01-15T20:27:29;99045.31;;;5.81;100.00
28310;BME280;15571;50.974;13.936;2023-01-15T20:30:34;99041.03;;;5.76;100.00
28310;BME280;15571;50.974;13.936;2023-01-15T20:33:36;99047.97;;;5.78;100.00
28310;BME280;15571;50.974;13.936;2023-01-15T20:36:38;99062.66;;;5.77;100.00
28310;BME280;15571;50.974;13.936;2023-01-15T20:39:40;99060.03;;;5.79;100.00
28310;BME280;15571;50.974;13.936;2023-01-15T20:42:43;99060.03;;;5.79;100.00
28310;BME280;15571;50.974;13.936;2023-01-15T20:46:07;99051.41;;;5.76;100.00
28310;BME280;15571;50.974;13.936;2023-01-15T20:49:09;99062.69;;;5.65;100.00
28310;BME280;15571;50.974;13.936;2023-01-15T20:52:29;99059.28;;;5.63;100.00
28310;BME280;15571;50.974;13.936;2023-01-15T20:55:31;99068.78;;;5.62;100.00
28310;BME280;15571;50.974;13.936;2023-01-15T20:58:35;99068.78;;;5.62;100.00
28310;BME280;15571;50.974;13.936;2023-01-15T21:01:37;99059.25;;;5.64;100.00
28310;BME280;15571;50.974;13.936;2023-01-15T21:04:39;99061.84;;;5.64;100.00
28310;BME280;15571;50.974;13.936;2023-01-15T21:07:41;99065.31;;;5.63;100.00
28310;BME280;15571;50.974;13.936;2023-01-15T21:10:43;99066.19;;;5.65;100.00
28310;BME280;15571;50.974;13.936;2023-01-15T21:13:46;99065.28;;;5.69;100.00
28310;BME280;15571;50.974;13.936;2023-01-15T21:16:51;99049.69;;;5.72;100.00
28310;BME280;15571;50.974;13.936;2023-01-15T21:19:53;99046.22;;;5.73;100.00
28310;BME280;15571;50.974;13.936;2023-01-15T21:22:55;99046.22;;;5.73;100.00
28310;BME280;15571;50.974;13.936;2023-01-15T21:25:58;99034.06;;;5.79;100.00
28310;BME280;15571;50.974;13.936;2023-01-15T21:29:02;99020.25;;;5.76;100.00
28310;BME280;15571;50.974;13.936;2023-01-15T21:32:05;99021.09;;;5.80;100.00
28310;BME280;15571;50.974;13.936;2023-01-15T21:35:07;99015.06;;;5.76;100.00
28310;BME280;15571;50.974;13.936;2023-01-15T21:38:13;99018.50;;;5.80;100.00
28310;BME280;15571;50.974;13.936;2023-01-15T21:41:18;99011.56;;;5.81;100.00
28310;BME280;15571;50.974;13.936;2023-01-15T21:44:43;99009.84;;;5.80;100.00
28310;BME280;15571;50.974;13.936;2023-01-15T21:47:50;99023.69;;;5.79;100.00
28310;BME280;15571;50.974;13.936;2023-01-15T21:51:02;99009.00;;;5.78;100.00
28310;BME280;15571;50.974;13.936;2023-01-15T21:54:04;99015.91;;;5.77;100.00
